createdAt,value
2022-11-24T00:03:10.023Z,7.20
2022-11-24T00:08:17.805Z,9.07
2022-11-24T00:13:21.869Z,10.10
2022-11-24T00:18:25.692Z,9.02
2022-11-24T00:23:28.273Z,9.52
2022-11-24T00:28:33.336Z,9.13
2022-11-24T00:33:35.869Z,8.82
2022-11-24T00:38:38.490Z,10.13
2022-11-24T00:43:42.450Z,9.05
2022-11-24T00:48:45.521Z,9.50
2022-11-24T00:53:48.192Z,9.43
2022-11-24T00:58:52.636Z,9.82
2022-11-24T01:03:55.723Z,10.15
2022-11-24T01:08:58.494Z,9.23
2022-11-24T01:14:02.400Z,9.88
2022-11-24T01:19:04.948Z,9.13
2022-11-24T01:24:07.602Z,9.27
2022-11-24T01:29:12.656Z,8.90
2022-11-24T01:34:15.284Z,9.38
2022-11-24T01:39:17.968Z,10.55
2022-11-24T01:44:24.309Z,9.35
2022-11-24T01:49:39.927Z,9.30
2022-11-24T01:54:49.116Z,9.73
2022-11-24T01:59:59.339Z,8.47
2022-11-24T02:05:05.920Z,9.15
2022-11-24T02:10:13.111Z,9.13
2022-11-24T02:20:20.050Z,8.25
2022-11-24T02:25:31.587Z,8.15
2022-11-24T02:30:36.184Z,8.38
2022-11-24T02:35:38.683Z,8.07
2022-11-24T02:40:44.508Z,8.05
2022-11-24T02:45:48.651Z,7.40
2022-11-24T02:50:51.108Z,7.50
2022-11-24T02:55:53.479Z,7.18
2022-11-24T03:00:57.539Z,6.88
2022-11-24T03:06:00.229Z,7.57
2022-11-24T03:11:02.860Z,6.55
2022-11-24T03:16:09.707Z,7.18
2022-11-24T03:21:12.144Z,6.47
2022-11-24T03:26:18.166Z,6.63
2022-11-24T03:31:22.703Z,6.38
2022-11-24T03:36:25.473Z,6.50
2022-11-24T03:41:27.938Z,6.57
2022-11-24T03:46:31.992Z,8.63
2022-11-24T03:51:34.527Z,7.15
2022-11-24T03:56:36.911Z,7.00
2022-11-24T04:01:40.883Z,6.30
2022-11-24T04:06:43.587Z,6.38
2022-11-24T04:11:46.000Z,5.93
2022-11-24T04:16:49.995Z,5.63
2022-11-24T04:21:52.264Z,6.15
2022-11-24T04:26:54.718Z,5.15
2022-11-24T04:31:58.613Z,5.45
2022-11-24T04:37:00.956Z,5.10
2022-11-24T04:42:03.170Z,5.20
2022-11-24T04:47:23.586Z,4.80
2022-11-24T04:52:26.574Z,4.93
2022-11-24T04:57:28.845Z,4.50
2022-11-24T05:02:32.544Z,3.90
2022-11-24T05:07:35.220Z,4.40
2022-11-24T05:12:37.669Z,4.43
2022-11-24T05:17:41.471Z,3.88
2022-11-24T05:22:43.844Z,3.80
2022-11-24T05:27:46.153Z,4.10
2022-11-24T05:32:49.925Z,3.67
2022-11-24T05:37:52.148Z,3.75
2022-11-24T05:42:54.530Z,3.40
2022-11-24T05:48:05.786Z,4.25
2022-11-24T05:53:10.978Z,3.47
2022-11-24T05:58:13.258Z,4.30
2022-11-24T06:03:17.197Z,3.17
2022-11-24T06:08:19.478Z,3.67
2022-11-24T06:13:21.720Z,2.75
2022-11-24T06:18:25.861Z,3.78
2022-11-24T06:23:31.158Z,2.83
2022-11-24T06:28:33.665Z,3.10
2022-11-24T06:33:38.928Z,3.72
2022-11-24T06:38:41.335Z,3.50
2022-11-24T06:43:43.634Z,2.95
2022-11-24T06:48:47.468Z,3.15
2022-11-24T06:53:49.829Z,3.33
2022-11-24T06:58:53.726Z,3.45
2022-11-24T07:03:58.347Z,3.33
2022-11-24T07:09:00.625Z,3.15
2022-11-24T07:14:03.836Z,3.10
2022-11-24T07:19:09.390Z,3.72
2022-11-24T07:24:12.114Z,3.28
2022-11-24T07:29:14.465Z,3.30
2022-11-24T07:34:18.424Z,4.32
2022-11-24T07:39:20.664Z,3.00
2022-11-24T07:44:22.927Z,5.15
2022-11-24T07:49:26.571Z,4.25
2022-11-24T07:54:28.784Z,5.00
2022-11-24T07:59:31.012Z,4.95
2022-11-24T08:04:37.140Z,3.22
2022-11-24T08:09:39.495Z,3.28
2022-11-24T08:14:41.694Z,2.90
2022-11-24T08:19:45.782Z,2.88
2022-11-24T08:24:48.149Z,2.78
2022-11-24T08:29:50.359Z,3.03
2022-11-24T08:34:59.614Z,4.90
2022-11-24T08:40:12.856Z,3.20
2022-11-24T08:45:21.084Z,2.83
2022-11-24T08:50:26.345Z,2.67
2022-11-24T08:55:28.955Z,2.40
2022-11-24T09:00:31.244Z,3.03
2022-11-24T09:05:52.186Z,3.28
2022-11-24T09:11:00.130Z,2.58
2022-11-24T09:21:11.885Z,2.95
2022-11-24T09:26:17.566Z,3.92
2022-11-24T09:31:20.647Z,4.40
2022-11-24T09:36:25.154Z,3.45
2022-11-24T09:41:42.390Z,3.47
2022-11-24T09:51:56.400Z,3.03
2022-11-24T09:57:01.425Z,3.42
2022-11-24T10:02:10.939Z,3.33
2022-11-24T10:07:22.536Z,4.00
2022-11-24T10:12:40.360Z,3.83
2022-11-24T10:18:04.268Z,3.38
2022-11-24T10:23:23.308Z,3.63
2022-11-24T10:28:30.924Z,3.20
2022-11-24T10:33:33.370Z,3.75
2022-11-24T10:38:42.866Z,3.33
2022-11-24T10:43:45.132Z,3.38
2022-11-24T10:48:52.096Z,3.40
2022-11-24T10:54:01.535Z,3.53
2022-11-24T10:59:26.319Z,2.70
2022-11-24T11:04:31.017Z,3.03
2022-11-24T11:09:35.036Z,2.60
2022-11-24T11:14:37.479Z,2.95
2022-11-24T11:19:50.037Z,2.80
2022-11-24T11:25:07.845Z,2.28
2022-11-24T11:35:46.256Z,2.45
2022-11-24T11:40:52.364Z,2.05
2022-11-24T11:46:02.117Z,2.28
2022-11-24T11:51:23.970Z,2.20
2022-11-24T11:56:30.894Z,2.35
2022-11-24T12:01:49.431Z,2.28
2022-11-24T12:07:06.535Z,1.90
2022-11-24T12:17:33.773Z,1.60
2022-11-24T12:22:47.190Z,1.83
2022-11-24T12:28:03.535Z,1.80
2022-11-24T12:33:31.234Z,2.10
2022-11-24T12:38:45.409Z,1.77
2022-11-24T12:43:51.657Z,2.03
2022-11-24T12:49:04.573Z,1.70
2022-11-24T12:54:13.055Z,1.58
2022-11-24T12:59:27.930Z,1.50
2022-11-24T13:04:37.945Z,1.65
2022-11-24T13:10:34.895Z,1.45
2022-11-24T13:16:35.188Z,1.60
2022-11-24T13:21:48.094Z,1.33
2022-11-24T13:26:52.511Z,1.30
2022-11-24T13:32:16.970Z,1.60
2022-11-24T13:37:32.003Z,1.25
2022-11-24T13:43:20.288Z,1.40
2022-11-24T13:48:59.818Z,1.38
2022-11-24T13:54:02.419Z,1.90
2022-11-24T13:59:17.338Z,1.60
2022-11-24T14:04:31.899Z,1.90
2022-11-24T14:09:40.932Z,1.42
2022-11-24T14:14:44.753Z,1.52
2022-11-24T14:19:50.397Z,1.90
2022-11-24T14:24:55.143Z,1.90
2022-11-24T14:29:59.466Z,1.98
2022-11-24T14:35:15.729Z,3.20
2022-11-24T14:40:39.652Z,2.40
2022-11-24T14:45:49.947Z,3.28
2022-11-24T14:51:05.005Z,3.13
2022-11-24T14:56:09.927Z,2.83
2022-11-24T15:01:21.379Z,2.63
2022-11-24T15:06:25.231Z,2.90
2022-11-24T15:11:30.857Z,4.47
2022-11-24T15:16:33.157Z,3.60
2022-11-24T15:21:37.917Z,3.60
2022-11-24T15:26:42.132Z,3.53
2022-11-24T15:31:50.826Z,3.53
2022-11-24T15:36:56.287Z,4.03
2022-11-24T15:41:58.601Z,3.88
2022-11-24T15:47:01.179Z,4.68
2022-11-24T15:52:05.957Z,5.20
2022-11-24T15:57:10.753Z,6.00
2022-11-24T16:02:13.599Z,5.40
2022-11-24T16:07:17.671Z,5.30
2022-11-24T16:12:19.879Z,5.45
2022-11-24T16:17:22.087Z,7.60
2022-11-24T16:22:26.072Z,6.22
2022-11-24T16:27:28.457Z,6.57
2022-11-24T16:32:30.842Z,7.50
2022-11-24T16:37:34.947Z,9.27
2022-11-24T16:42:37.387Z,8.40
2022-11-24T16:47:40.482Z,9.10
2022-11-24T16:52:44.247Z,9.20
2022-11-24T16:57:46.661Z,13.45
2022-11-24T17:02:48.956Z,16.40
2022-11-24T17:07:52.792Z,11.52
2022-11-24T17:12:55.256Z,7.93
2022-11-24T17:18:22.989Z,8.75
2022-11-24T17:23:21.250Z,10.43
2022-11-24T17:28:23.436Z,11.80
2022-11-24T17:33:25.690Z,12.50
2022-11-24T17:38:29.878Z,17.80
2022-11-24T17:43:32.312Z,21.02
2022-11-24T17:48:35.891Z,21.90
2022-11-24T17:53:41.056Z,13.38
2022-11-24T17:58:43.791Z,11.48
2022-11-24T18:03:50.438Z,10.35
2022-11-24T18:08:58.465Z,10.60
2022-11-24T18:14:02.781Z,13.77
2022-11-24T18:19:09.886Z,9.82
2022-11-24T18:29:16.312Z,11.93
2022-11-24T18:34:18.596Z,9.75
2022-11-24T18:39:22.306Z,11.27
2022-11-24T18:44:24.401Z,10.40
2022-11-24T18:49:26.583Z,10.52
2022-11-24T18:54:30.203Z,10.40
2022-11-24T18:59:32.729Z,10.07
2022-11-24T19:04:35.112Z,11.55
2022-11-24T19:09:39.008Z,9.40
2022-11-24T19:14:41.266Z,9.20
2022-11-24T19:19:43.424Z,10.38
2022-11-24T19:24:52.062Z,10.23
2022-11-24T19:29:54.524Z,10.82
2022-11-24T19:34:56.796Z,10.20
2022-11-24T19:40:02.266Z,11.05
2022-11-24T19:45:05.981Z,11.07
2022-11-24T19:50:10.484Z,12.20
2022-11-24T19:55:15.535Z,10.88
2022-11-24T20:00:18.564Z,10.30
2022-11-24T20:05:20.787Z,13.50
2022-11-24T20:10:24.789Z,10.63
2022-11-24T20:15:27.394Z,11.35
2022-11-24T20:20:29.659Z,10.82
2022-11-24T20:25:37.947Z,9.80
2022-11-24T20:30:40.159Z,11.80
2022-11-24T20:35:44.077Z,11.05
2022-11-24T20:40:48.318Z,11.65
2022-11-24T20:45:50.810Z,11.63
2022-11-24T20:50:53.025Z,11.50
2022-11-24T20:56:05.897Z,11.35
2022-11-24T21:01:16.033Z,10.60
2022-11-24T21:06:19.151Z,10.48
2022-11-24T21:11:23.840Z,9.68
2022-11-24T21:16:28.005Z,11.15
2022-11-24T21:21:33.063Z,10.93
2022-11-24T21:26:38.712Z,10.98
2022-11-24T21:31:41.258Z,11.60
2022-11-24T21:36:43.635Z,10.20
2022-11-24T21:41:47.342Z,8.88
2022-11-24T21:46:55.733Z,8.48
2022-11-24T21:51:58.640Z,8.30
2022-11-24T21:57:02.369Z,8.05
2022-11-24T22:02:13.034Z,8.70
2022-11-24T22:07:15.876Z,7.18
2022-11-24T22:12:19.763Z,8.30
2022-11-24T22:17:21.956Z,7.57
2022-11-24T22:22:24.149Z,7.38
2022-11-24T22:27:27.775Z,7.45
2022-11-24T22:32:30.057Z,7.55
2022-11-24T22:37:32.320Z,8.68
2022-11-24T22:42:36.061Z,8.98
2022-11-24T22:47:38.270Z,8.77
2022-11-24T22:52:40.479Z,8.55
2022-11-24T22:57:48.138Z,9.13
2022-11-24T23:02:51.095Z,8.60
2022-11-24T23:07:53.398Z,9.15
2022-11-24T23:12:57.174Z,8.07
2022-11-24T23:17:59.379Z,7.80
2022-11-24T23:23:01.540Z,9.13
2022-11-24T23:28:05.445Z,8.98
2022-11-24T23:33:07.741Z,8.00
2022-11-24T23:38:10.082Z,7.60
2022-11-24T23:43:13.819Z,8.35
2022-11-24T23:48:15.980Z,8.93
2022-11-24T23:53:18.395Z,9.23
2022-11-24T23:58:22.284Z,9.57
